Accueil
METAR-TAF:

METAR-TAF

Aéroports :

Bückeburg, Allemagne

latitude: 52-17N, longitude: 009-05E, altitude: 70 m

Observation

Le bulletin a été fait il y a 1 heure et 7 minutes, à 21:20 UTC
Vent 4 kt de sud
Température 4°C
Humidité 75%
Pression 1014 hPa
Visibilité 10 km ou plus
Quelques nuages à une hauteur de 7000 ft

METAR: ETHB 272120Z 18004KT 9999 FEW070 04/M00 Q1014 BLU+BLU+

Heure: 00:27 (22:27 UTC)

Prévision

Le bulletin a été fait il y a 1 heure et 11 minutes, à 21:16 UTC
Prévision valable du 27 à 20 UTC au 28 à 05 UTC
Vent 5 kt de sud-ouest
Visibilité 10 km ou plus
Quelques nuages à une hauteur de 4000 ft
Nuages épars à une hauteur de 7000 ft
Evoluant progressivement
du 28 à 03 UTC au 28 à 05 UTC
Vent 5 kt de sud
Visibilité: 2200 m
Nuages épars à une hauteur de 1000 ft
Nuages fragmentés à une hauteur de 2000 ft

TAF: ETHB 272116Z 2720/2805 23005KT 9999 NSW FEW040 SCT070 BECMG 2803/2805 19005KT 8000 NSW SCT010 BKN020 CANCEL 2200

Observations et prévisions météorologiques de plus de 4000 aéroports (messages METAR et TAF).

Les stations disponibles sont représentées par des disques jaunes et rouges sur la carte.

Passer la souris dessus pour voir le nom de la station.

Cliquer dessus pour voir les observations et prévisions météorologiques.

Pour changer de carte: cliquez sur les boutons verts avec une croix noire pour zoomer, sur le bouton vert avec un tiret pour effectuer un zoom arrière, ou sur les flèches vertes pour les cartes adjacentes.


METAR-TAF: